AKJ1304 VOMM-VOPB
Flight info
| Callsign | AKJ1304 |
|---|---|
| Flight time | N/A |
| Altitude | 37000 |
| Route | IDASO2B IDASO P761 LEGIN |
| Aircraft | B38M/M-SDE1FGHILORVWXY/HB1 |
Departure
| Time | 2026-04-23 09:00 |
|---|---|
| Airport | Chennai International Airport (VOMM) |
Arrival
| Time | N/A |
|---|---|
| Airport | Veer Savarkar International Airport / INS Utkrosh (VOPB) |
| Time | Latitude | Longitude | Altitude | Speed | Heading |
|---|---|---|---|---|---|
| 2026-04-23 08:17 | 12.98481 | 80.16676 | 54 ft | 0 kts | 160° |
| 2026-04-23 08:45 | 12.98491 | 80.16672 | 53 ft | 2 kts | 158° |
| 2026-04-23 08:45 | 12.98505 | 80.16666 | 53 ft | 2 kts | 160° |
| 2026-04-23 08:46 | 12.98519 | 80.16661 | 52 ft | 2 kts | 159° |
| 2026-04-23 08:46 | 12.98531 | 80.16656 | 52 ft | 1 kts | 160° |
| 2026-04-23 08:46 | 12.98543 | 80.16647 | 52 ft | 2 kts | 117° |
| 2026-04-23 08:46 | 12.98545 | 80.16632 | 51 ft | 2 kts | 78° |
| 2026-04-23 08:47 | 12.98539 | 80.16618 | 51 ft | 2 kts | 65° |
| 2026-04-23 08:47 | 12.98535 | 80.16604 | 51 ft | 1 kts | 71° |
| 2026-04-23 08:47 | 12.98533 | 80.16601 | 51 ft | 0 kts | 70° |
| 2026-04-23 08:50 | 12.98534 | 80.16602 | 51 ft | 0 kts | 70° |
| 2026-04-23 08:51 | 12.98542 | 80.16625 | 51 ft | 6 kts | 69° |
| 2026-04-23 08:51 | 12.98555 | 80.16660 | 52 ft | 5 kts | 69° |
| 2026-04-23 08:51 | 12.98568 | 80.16694 | 53 ft | 4 kts | 69° |
| 2026-04-23 08:51 | 12.98574 | 80.16711 | 53 ft | 1 kts | 69° |
| 2026-04-23 08:52 | 12.98577 | 80.16718 | 53 ft | 0 kts | 70° |
| 2026-04-23 08:52 | 12.98584 | 80.16737 | 54 ft | 6 kts | 70° |
| 2026-04-23 08:52 | 12.98612 | 80.16766 | 54 ft | 8 kts | 9° |
| 2026-04-23 08:52 | 12.98696 | 80.16740 | 48 ft | 15 kts | 339° |
| 2026-04-23 08:53 | 12.98759 | 80.16748 | 47 ft | 11 kts | 62° |
| 2026-04-23 08:53 | 12.98798 | 80.16849 | 47 ft | 19 kts | 69° |
| 2026-04-23 08:53 | 12.98845 | 80.16974 | 47 ft | 17 kts | 68° |
| 2026-04-23 08:53 | 12.98891 | 80.17095 | 47 ft | 19 kts | 69° |
| 2026-04-23 08:54 | 12.98938 | 80.17216 | 48 ft | 16 kts | 61° |
| 2026-04-23 08:54 | 12.98991 | 80.17325 | 47 ft | 19 kts | 69° |
| 2026-04-23 08:54 | 12.99046 | 80.17468 | 46 ft | 24 kts | 69° |
| 2026-04-23 08:54 | 12.99102 | 80.17616 | 46 ft | 20 kts | 69° |
| 2026-04-23 08:55 | 12.99150 | 80.17695 | 46 ft | 10 kts | 20° |
| 2026-04-23 08:55 | 12.99209 | 80.17729 | 45 ft | 11 kts | 64° |
| 2026-04-23 08:55 | 12.99245 | 80.17825 | 48 ft | 16 kts | 68° |
| 2026-04-23 08:55 | 12.99283 | 80.17926 | 50 ft | 15 kts | 70° |
| 2026-04-23 08:56 | 12.99330 | 80.18046 | 51 ft | 20 kts | 68° |
| 2026-04-23 08:56 | 12.99362 | 80.18152 | 51 ft | 13 kts | 87° |
| 2026-04-23 08:56 | 12.99370 | 80.18251 | 50 ft | 14 kts | 67° |
| 2026-04-23 08:56 | 12.99423 | 80.18314 | 50 ft | 5 kts | 42° |
| 2026-04-23 08:57 | 12.99427 | 80.18318 | 50 ft | 0 kts | 42° |
| 2026-04-23 08:57 | 12.99428 | 80.18319 | 50 ft | 0 kts | 42° |
| 2026-04-23 08:57 | 12.99461 | 80.18350 | 50 ft | 13 kts | 42° |
| 2026-04-23 08:58 | 12.99528 | 80.18410 | 51 ft | 10 kts | 33° |
| 2026-04-23 08:58 | 12.99572 | 80.18399 | 51 ft | 6 kts | 287° |
| 2026-04-23 08:58 | 12.99561 | 80.18343 | 51 ft | 8 kts | 249° |
| 2026-04-23 08:58 | 12.99557 | 80.18333 | 51 ft | 0 kts | 249° |
| 2026-04-23 08:59 | 12.99555 | 80.18328 | 51 ft | 3 kts | 249° |
| 2026-04-23 08:59 | 12.99491 | 80.18160 | 49 ft | 57 kts | 249° |
| 2026-04-23 08:59 | 12.99274 | 80.17571 | 43 ft | 116 kts | 245° |
| 2026-04-23 08:59 | 12.98930 | 80.16672 | 46 ft | 162 kts | 250° |
| 2026-04-23 09:00 | 12.98506 | 80.15482 | 197 ft | 186 kts | 250° |
| 2026-04-23 09:00 | 12.98114 | 80.14223 | 652 ft | 194 kts | 249° |
| 2026-04-23 09:00 | 12.97627 | 80.12891 | 1052 ft | 204 kts | 234° |
| 2026-04-23 09:00 | 12.96576 | 80.11981 | 1279 ft | 205 kts | 193° |
| 2026-04-23 09:01 | 12.95158 | 80.12054 | 1406 ft | 214 kts | 151° |
| 2026-04-23 09:01 | 12.94045 | 80.13143 | 1589 ft | 228 kts | 121° |
| 2026-04-23 09:01 | 12.93355 | 80.14622 | 1824 ft | 243 kts | 109° |
| 2026-04-23 09:01 | 12.93023 | 80.16275 | 2058 ft | 258 kts | 92° |
| 2026-04-23 09:02 | 12.93109 | 80.18156 | 2542 ft | 261 kts | 88° |
| 2026-04-23 09:02 | 12.93105 | 80.20005 | 3041 ft | 263 kts | 94° |
| 2026-04-23 09:02 | 12.92967 | 80.21877 | 3624 ft | 266 kts | 95° |
| 2026-04-23 09:02 | 12.92795 | 80.23742 | 4243 ft | 267 kts | 95° |
| 2026-04-23 09:03 | 12.92635 | 80.25623 | 4807 ft | 271 kts | 94° |
| 2026-04-23 09:03 | 12.92490 | 80.27528 | 5402 ft | 274 kts | 93° |
| 2026-04-23 09:03 | 12.92350 | 80.29472 | 6062 ft | 274 kts | 92° |
| 2026-04-23 09:03 | 12.92208 | 80.31416 | 6759 ft | 274 kts | 92° |
| 2026-04-23 09:04 | 12.92067 | 80.33332 | 7418 ft | 276 kts | 91° |
| 2026-04-23 09:04 | 12.91923 | 80.35307 | 8119 ft | 277 kts | 92° |
| 2026-04-23 09:04 | 12.91778 | 80.37257 | 8746 ft | 280 kts | 91° |
| 2026-04-23 09:04 | 12.91629 | 80.39237 | 9469 ft | 280 kts | 91° |
| 2026-04-23 09:05 | 12.91478 | 80.41253 | 10114 ft | 285 kts | 91° |
| 2026-04-23 09:05 | 12.91326 | 80.43308 | 10500 ft | 299 kts | 91° |
| 2026-04-23 09:05 | 12.91164 | 80.45498 | 10886 ft | 314 kts | 92° |
| 2026-04-23 09:05 | 12.90993 | 80.47759 | 11213 ft | 327 kts | 92° |
| 2026-04-23 09:06 | 12.90815 | 80.50119 | 11522 ft | 342 kts | 92° |
| 2026-04-23 09:06 | 12.90628 | 80.52589 | 11864 ft | 354 kts | 92° |
| 2026-04-23 09:06 | 12.90436 | 80.55119 | 12592 ft | 356 kts | 92° |
| 2026-04-23 09:06 | 12.90243 | 80.57655 | 13243 ft | 358 kts | 92° |
| 2026-04-23 09:07 | 12.90051 | 80.60193 | 13740 ft | 365 kts | 93° |
| 2026-04-23 09:07 | 12.89855 | 80.62790 | 14297 ft | 371 kts | 93° |
| 2026-04-23 09:07 | 12.89653 | 80.65453 | 14886 ft | 376 kts | 93° |
| 2026-04-23 09:07 | 12.89450 | 80.68135 | 15392 ft | 382 kts | 93° |
| 2026-04-23 09:08 | 12.89247 | 80.70833 | 15920 ft | 387 kts | 94° |
| 2026-04-23 09:08 | 12.89037 | 80.73601 | 16459 ft | 392 kts | 93° |
| 2026-04-23 09:08 | 12.88822 | 80.76420 | 16920 ft | 397 kts | 94° |
| 2026-04-23 09:08 | 12.88609 | 80.79222 | 17421 ft | 402 kts | 94° |
| 2026-04-23 09:09 | 12.88389 | 80.82098 | 17967 ft | 405 kts | 94° |
| 2026-04-23 09:09 | 12.88170 | 80.84962 | 18484 ft | 409 kts | 94° |
| 2026-04-23 09:09 | 12.87945 | 80.87910 | 18956 ft | 413 kts | 94° |
| 2026-04-23 09:09 | 12.87721 | 80.90836 | 19493 ft | 416 kts | 95° |
| 2026-04-23 09:10 | 12.87496 | 80.93770 | 19945 ft | 420 kts | 95° |
| 2026-04-23 09:10 | 12.87036 | 80.99787 | 20871 ft | 427 kts | 95° |
| 2026-04-23 09:10 | 12.86807 | 81.02765 | 21335 ft | 430 kts | 95° |
| 2026-04-23 09:11 | 12.86574 | 81.05802 | 21789 ft | 433 kts | 95° |
| 2026-04-23 09:11 | 12.86336 | 81.08878 | 22212 ft | 437 kts | 96° |
| 2026-04-23 09:11 | 12.86094 | 81.12003 | 22651 ft | 440 kts | 96° |
| 2026-04-23 09:11 | 12.85853 | 81.15131 | 23049 ft | 444 kts | 96° |
| 2026-04-23 09:12 | 12.85609 | 81.18269 | 23477 ft | 446 kts | 96° |
| 2026-04-23 09:12 | 12.85364 | 81.21432 | 23855 ft | 450 kts | 96° |
| 2026-04-23 09:12 | 12.85111 | 81.24683 | 24237 ft | 454 kts | 96° |
| 2026-04-23 09:12 | 12.84862 | 81.27882 | 24625 ft | 458 kts | 96° |
| 2026-04-23 09:13 | 12.84627 | 81.30898 | 25001 ft | 460 kts | 96° |
| 2026-04-23 09:13 | 12.84416 | 81.33599 | 25332 ft | 462 kts | 96° |
| 2026-04-23 09:13 | 12.84146 | 81.37057 | 25687 ft | 466 kts | 96° |
| 2026-04-23 09:13 | 12.83888 | 81.40350 | 26072 ft | 469 kts | 97° |
| 2026-04-23 09:14 | 12.83607 | 81.43934 | 26494 ft | 471 kts | 97° |
| 2026-04-23 09:14 | 12.83346 | 81.47248 | 26823 ft | 475 kts | 97° |
| 2026-04-23 09:14 | 12.83080 | 81.50643 | 27198 ft | 478 kts | 97° |
| 2026-04-23 09:14 | 12.82813 | 81.54046 | 27518 ft | 481 kts | 97° |
| 2026-04-23 09:15 | 12.82545 | 81.57449 | 27861 ft | 484 kts | 97° |
| 2026-04-23 09:15 | 12.82274 | 81.60889 | 28201 ft | 487 kts | 97° |
| 2026-04-23 09:15 | 12.82000 | 81.64344 | 28548 ft | 489 kts | 97° |
| 2026-04-23 09:15 | 12.81730 | 81.67757 | 29107 ft | 486 kts | 97° |
| 2026-04-23 09:16 | 12.81460 | 81.71176 | 29652 ft | 483 kts | 98° |
| 2026-04-23 09:16 | 12.81186 | 81.74631 | 30136 ft | 481 kts | 98° |
| 2026-04-23 09:16 | 12.80919 | 81.77994 | 30567 ft | 480 kts | 98° |
| 2026-04-23 09:16 | 12.80650 | 81.81376 | 31026 ft | 479 kts | 98° |
| 2026-04-23 09:17 | 12.80383 | 81.84726 | 31448 ft | 477 kts | 98° |
| 2026-04-23 09:17 | 12.80114 | 81.88095 | 31929 ft | 474 kts | 98° |
| 2026-04-23 09:17 | 12.79843 | 81.91473 | 32301 ft | 474 kts | 99° |
| 2026-04-23 09:17 | 12.79571 | 81.94846 | 32597 ft | 475 kts | 99° |
| 2026-04-23 09:18 | 12.79304 | 81.98167 | 33032 ft | 473 kts | 99° |
| 2026-04-23 09:18 | 12.79031 | 82.01545 | 33430 ft | 473 kts | 99° |
| 2026-04-23 09:18 | 12.78762 | 82.04860 | 33819 ft | 471 kts | 99° |
| 2026-04-23 09:18 | 12.78492 | 82.08206 | 34142 ft | 472 kts | 99° |
| 2026-04-23 09:19 | 12.78222 | 82.11549 | 34510 ft | 471 kts | 99° |
| 2026-04-23 09:19 | 12.77951 | 82.14876 | 34826 ft | 471 kts | 99° |
| 2026-04-23 09:19 | 12.77679 | 82.18240 | 35208 ft | 469 kts | 99° |
| 2026-04-23 09:19 | 12.77410 | 82.21536 | 35456 ft | 470 kts | 99° |
| 2026-04-23 09:20 | 12.77138 | 82.24860 | 35700 ft | 471 kts | 99° |
| 2026-04-23 09:20 | 12.76863 | 82.28213 | 36000 ft | 471 kts | 99° |
| 2026-04-23 09:20 | 12.76591 | 82.31536 | 36319 ft | 470 kts | 99° |
| 2026-04-23 09:20 | 12.76316 | 82.34882 | 36588 ft | 470 kts | 99° |
| 2026-04-23 09:21 | 12.76040 | 82.38223 | 36760 ft | 471 kts | 99° |
| 2026-04-23 09:21 | 12.75484 | 82.44929 | 36783 ft | 478 kts | 98° |
| 2026-04-23 09:22 | 12.74919 | 82.51735 | 36785 ft | 481 kts | 99° |
| 2026-04-23 09:22 | 12.74367 | 82.58458 | 36791 ft | 479 kts | 99° |
| 2026-04-23 09:23 | 12.73812 | 82.65208 | 36792 ft | 479 kts | 99° |
| 2026-04-23 09:23 | 12.73245 | 82.72021 | 36783 ft | 480 kts | 99° |
| 2026-04-23 09:24 | 12.72675 | 82.78818 | 36779 ft | 480 kts | 99° |
| 2026-04-23 09:24 | 12.72109 | 82.85601 | 36780 ft | 479 kts | 99° |
| 2026-04-23 09:25 | 12.71539 | 82.92394 | 36779 ft | 479 kts | 98° |
| 2026-04-23 09:25 | 12.70969 | 82.99167 | 36780 ft | 478 kts | 98° |
| 2026-04-23 09:26 | 12.70396 | 83.05965 | 36781 ft | 480 kts | 98° |
| 2026-04-23 09:26 | 12.69824 | 83.12717 | 36780 ft | 478 kts | 98° |
| 2026-04-23 09:27 | 12.69245 | 83.19516 | 36781 ft | 477 kts | 98° |
| 2026-04-23 09:27 | 12.68667 | 83.26271 | 36781 ft | 478 kts | 98° |
| 2026-04-23 09:28 | 12.68089 | 83.33003 | 36780 ft | 478 kts | 98° |
| 2026-04-23 09:28 | 12.67508 | 83.39777 | 36780 ft | 479 kts | 98° |
| 2026-04-23 09:29 | 12.66925 | 83.46552 | 36780 ft | 478 kts | 98° |
| 2026-04-23 09:29 | 12.66344 | 83.53328 | 36781 ft | 477 kts | 98° |
| 2026-04-23 09:30 | 12.65719 | 83.60085 | 36784 ft | 477 kts | 99° |
| 2026-04-23 09:30 | 12.65033 | 83.66368 | 36782 ft | 477 kts | 100° |
| 2026-04-23 09:32 | 12.63343 | 83.82214 | 36788 ft | 477 kts | 99° |
| 2026-04-23 09:33 | 12.62037 | 83.95071 | 36799 ft | 476 kts | 99° |
| 2026-04-23 09:33 | 12.61147 | 84.03879 | 36800 ft | 477 kts | 99° |
| 2026-04-23 09:34 | 12.59672 | 84.18509 | 36801 ft | 475 kts | 99° |
| 2026-04-23 09:35 | 12.58200 | 84.32909 | 36793 ft | 475 kts | 99° |
| 2026-04-23 09:36 | 12.57492 | 84.39829 | 36791 ft | 475 kts | 99° |
| 2026-04-23 09:36 | 12.56810 | 84.46520 | 36793 ft | 474 kts | 99° |
| 2026-04-23 09:37 | 12.56129 | 84.53171 | 36797 ft | 474 kts | 99° |
| 2026-04-23 09:37 | 12.55440 | 84.59875 | 36800 ft | 474 kts | 99° |
| 2026-04-23 09:38 | 12.54754 | 84.66530 | 36798 ft | 473 kts | 99° |
| 2026-04-23 09:38 | 12.54063 | 84.73191 | 36792 ft | 473 kts | 99° |
| 2026-04-23 09:39 | 12.53369 | 84.79896 | 36787 ft | 473 kts | 99° |
| 2026-04-23 09:39 | 12.52679 | 84.86540 | 36783 ft | 473 kts | 99° |
| 2026-04-23 09:40 | 12.51988 | 84.93181 | 36781 ft | 473 kts | 99° |
| 2026-04-23 09:40 | 12.51289 | 84.99877 | 36781 ft | 473 kts | 99° |
| 2026-04-23 09:41 | 12.50597 | 85.06493 | 36781 ft | 473 kts | 99° |
| 2026-04-23 09:41 | 12.49896 | 85.13154 | 36783 ft | 472 kts | 99° |
| 2026-04-23 09:42 | 12.49201 | 85.19766 | 36782 ft | 472 kts | 99° |
| 2026-04-23 09:42 | 12.48502 | 85.26385 | 36783 ft | 472 kts | 99° |
| 2026-04-23 09:43 | 12.47900 | 85.32081 | 36785 ft | 472 kts | 99° |
| 2026-04-23 09:43 | 12.47107 | 85.39590 | 36788 ft | 473 kts | 99° |
| 2026-04-23 09:44 | 12.46398 | 85.46278 | 36792 ft | 473 kts | 99° |
| 2026-04-23 09:44 | 12.45691 | 85.52920 | 36790 ft | 473 kts | 99° |
| 2026-04-23 09:45 | 12.44976 | 85.59621 | 36792 ft | 472 kts | 99° |
| 2026-04-23 09:45 | 12.44266 | 85.66267 | 36798 ft | 472 kts | 99° |
| 2026-04-23 09:46 | 12.43554 | 85.72921 | 36801 ft | 472 kts | 99° |
| 2026-04-23 09:46 | 12.42839 | 85.79572 | 36802 ft | 472 kts | 99° |
| 2026-04-23 09:47 | 12.42124 | 85.86212 | 36801 ft | 472 kts | 99° |
| 2026-04-23 09:47 | 12.41405 | 85.92892 | 36801 ft | 473 kts | 99° |
| 2026-04-23 09:48 | 12.40684 | 85.99554 | 36801 ft | 473 kts | 99° |
| 2026-04-23 09:48 | 12.39959 | 86.06223 | 36801 ft | 473 kts | 99° |
| 2026-04-23 09:49 | 12.39232 | 86.12917 | 36801 ft | 472 kts | 99° |
| 2026-04-23 09:49 | 12.38513 | 86.19520 | 36801 ft | 471 kts | 99° |
| 2026-04-23 09:50 | 12.37786 | 86.26176 | 36801 ft | 472 kts | 99° |
| 2026-04-23 09:50 | 12.37058 | 86.32823 | 36801 ft | 472 kts | 99° |
| 2026-04-23 09:51 | 12.36328 | 86.39475 | 36798 ft | 472 kts | 99° |
| 2026-04-23 09:51 | 12.35596 | 86.46139 | 36790 ft | 472 kts | 98° |
| 2026-04-23 09:52 | 12.35274 | 86.49070 | 36786 ft | 472 kts | 99° |